Woody Point, Canada
Current Conditions -  °F | °C
As of 11:22 AM on Wednesday 28 Jan 2015 (Local Time) from CYDF Reporting Station
Light Snow Light Snow  
Wind Chill: -11°   Ceiling: 900
Heat Index: -4°   Visibility: 8mi
Dew Point: -5°   Wind: 14mph
Humidity: 93%   Direction: 40°NE
Pressure: 29.76"   Gusts: NA
Location:  49.5°N, 57.93°W
Report Text: CYDF 281422Z 04012KT 8SM -FZDZ -SN OVC009 M04/M05 A2976 RMK SF8 SLP081
Loading
Personal Weather Stations






























Interactive Weather Map New forecast layout! Learn more

10-Day Weather Forecast

Advertisements
Track Severe Weather on mobile